sensor_id;sensor_type;location;lat;lon;timestamp;P1;durP1;ratioP1;P2;durP2;ratioP2
72584;SDS011;73873;40.084;32.908;2024-02-23T00:02:06;12.88;;;4.82;;
72584;SDS011;73873;40.084;32.908;2024-02-23T00:04:45;10.93;;;3.80;;
72584;SDS011;73873;40.084;32.908;2024-02-23T00:07:15;10.90;;;3.90;;
72584;SDS011;73873;40.084;32.908;2024-02-23T00:09:42;10.73;;;4.45;;
72584;SDS011;73873;40.084;32.908;2024-02-23T00:12:09;10.63;;;4.20;;
72584;SDS011;73873;40.084;32.908;2024-02-23T00:14:36;11.50;;;4.35;;
72584;SDS011;73873;40.084;32.908;2024-02-23T00:17:03;14.77;;;5.80;;
72584;SDS011;73873;40.084;32.908;2024-02-23T00:19:30;16.27;;;6.63;;
72584;SDS011;73873;40.084;32.908;2024-02-23T00:21:58;19.88;;;8.05;;
72584;SDS011;73873;40.084;32.908;2024-02-23T00:24:25;20.07;;;7.80;;
72584;SDS011;73873;40.084;32.908;2024-02-23T00:26:52;22.85;;;8.27;;
72584;SDS011;73873;40.084;32.908;2024-02-23T00:29:20;17.83;;;6.78;;
72584;SDS011;73873;40.084;32.908;2024-02-23T00:31:47;15.07;;;6.03;;
72584;SDS011;73873;40.084;32.908;2024-02-23T00:34:14;17.73;;;6.50;;
72584;SDS011;73873;40.084;32.908;2024-02-23T00:36:41;14.90;;;6.00;;
72584;SDS011;73873;40.084;32.908;2024-02-23T00:39:09;17.75;;;7.18;;
72584;SDS011;73873;40.084;32.908;2024-02-23T00:41:36;22.92;;;8.55;;
72584;SDS011;73873;40.084;32.908;2024-02-23T00:44:04;19.23;;;7.57;;
72584;SDS011;73873;40.084;32.908;2024-02-23T00:46:31;21.23;;;7.70;;
72584;SDS011;73873;40.084;32.908;2024-02-23T00:48:58;17.03;;;6.50;;
72584;SDS011;73873;40.084;32.908;2024-02-23T00:51:25;16.67;;;6.30;;
72584;SDS011;73873;40.084;32.908;2024-02-23T00:53:52;20.77;;;6.82;;
72584;SDS011;73873;40.084;32.908;2024-02-23T00:56:19;18.48;;;7.10;;
72584;SDS011;73873;40.084;32.908;2024-02-23T00:58:52;21.58;;;8.07;;
72584;SDS011;73873;40.084;32.908;2024-02-23T01:01:19;21.97;;;8.67;;
72584;SDS011;73873;40.084;32.908;2024-02-23T01:03:47;20.58;;;8.00;;
72584;SDS011;73873;40.084;32.908;2024-02-23T01:06:14;18.80;;;7.68;;
72584;SDS011;73873;40.084;32.908;2024-02-23T01:08:40;18.75;;;6.85;;
72584;SDS011;73873;40.084;32.908;2024-02-23T01:11:07;16.15;;;5.88;;
72584;SDS011;73873;40.084;32.908;2024-02-23T01:13:34;13.53;;;4.97;;
72584;SDS011;73873;40.084;32.908;2024-02-23T01:16:02;12.05;;;4.65;;
72584;SDS011;73873;40.084;32.908;2024-02-23T01:18:30;13.02;;;4.70;;
72584;SDS011;73873;40.084;32.908;2024-02-23T01:20:57;13.50;;;4.75;;
72584;SDS011;73873;40.084;32.908;2024-02-23T01:23:23;13.73;;;4.50;;
72584;SDS011;73873;40.084;32.908;2024-02-23T01:25:51;13.13;;;5.30;;
72584;SDS011;73873;40.084;32.908;2024-02-23T01:28:18;11.32;;;4.45;;
72584;SDS011;73873;40.084;32.908;2024-02-23T01:30:45;16.27;;;6.78;;
72584;SDS011;73873;40.084;32.908;2024-02-23T01:33:12;15.73;;;6.15;;
72584;SDS011;73873;40.084;32.908;2024-02-23T01:35:39;17.38;;;6.60;;
72584;SDS011;73873;40.084;32.908;2024-02-23T01:38:06;14.23;;;5.55;;
72584;SDS011;73873;40.084;32.908;2024-02-23T01:40:33;15.82;;;5.85;;
72584;SDS011;73873;40.084;32.908;2024-02-23T01:43:01;11.82;;;4.90;;
72584;SDS011;73873;40.084;32.908;2024-02-23T01:45:29;13.10;;;5.78;;
72584;SDS011;73873;40.084;32.908;2024-02-23T01:48:00;14.35;;;5.53;;
72584;SDS011;73873;40.084;32.908;2024-02-23T01:50:28;12.53;;;4.63;;
72584;SDS011;73873;40.084;32.908;2024-02-23T01:53:00;20.27;;;6.82;;
72584;SDS011;73873;40.084;32.908;2024-02-23T01:55:29;15.40;;;6.28;;
72584;SDS011;73873;40.084;32.908;2024-02-23T01:58:01;18.98;;;7.60;;
72584;SDS011;73873;40.084;32.908;2024-02-23T02:00:34;19.80;;;7.65;;
72584;SDS011;73873;40.084;32.908;2024-02-23T02:03:02;17.52;;;6.57;;
72584;SDS011;73873;40.084;32.908;2024-02-23T02:05:29;19.40;;;8.32;;
72584;SDS011;73873;40.084;32.908;2024-02-23T02:07:57;19.65;;;8.00;;
72584;SDS011;73873;40.084;32.908;2024-02-23T02:10:24;20.70;;;8.23;;
72584;SDS011;73873;40.084;32.908;2024-02-23T02:12:52;22.75;;;8.45;;
72584;SDS011;73873;40.084;32.908;2024-02-23T02:15:19;19.53;;;7.33;;
72584;SDS011;73873;40.084;32.908;2024-02-23T02:17:47;24.25;;;9.10;;
72584;SDS011;73873;40.084;32.908;2024-02-23T02:20:14;20.73;;;7.85;;
72584;SDS011;73873;40.084;32.908;2024-02-23T02:22:41;18.02;;;6.88;;
72584;SDS011;73873;40.084;32.908;2024-02-23T02:25:08;17.27;;;6.60;;
72584;SDS011;73873;40.084;32.908;2024-02-23T02:27:35;17.13;;;7.13;;
72584;SDS011;73873;40.084;32.908;2024-02-23T02:30:02;16.42;;;6.22;;
72584;SDS011;73873;40.084;32.908;2024-02-23T02:32:29;20.63;;;7.97;;
72584;SDS011;73873;40.084;32.908;2024-02-23T02:35:01;20.92;;;8.57;;
72584;SDS011;73873;40.084;32.908;2024-02-23T02:37:28;22.48;;;8.65;;
72584;SDS011;73873;40.084;32.908;2024-02-23T02:39:55;18.88;;;7.35;;
72584;SDS011;73873;40.084;32.908;2024-02-23T02:42:22;23.88;;;8.75;;
72584;SDS011;73873;40.084;32.908;2024-02-23T02:44:48;23.75;;;8.85;;
72584;SDS011;73873;40.084;32.908;2024-02-23T02:47:15;20.20;;;7.97;;
72584;SDS011;73873;40.084;32.908;2024-02-23T02:49:42;20.80;;;7.68;;
72584;SDS011;73873;40.084;32.908;2024-02-23T02:52:09;21.93;;;7.97;;
72584;SDS011;73873;40.084;32.908;2024-02-23T02:54:36;18.88;;;7.78;;
72584;SDS011;73873;40.084;32.908;2024-02-23T02:57:03;19.83;;;7.35;;
72584;SDS011;73873;40.084;32.908;2024-02-23T02:59:33;15.90;;;6.78;;
72584;SDS011;73873;40.084;32.908;2024-02-23T03:02:01;16.52;;;6.80;;
72584;SDS011;73873;40.084;32.908;2024-02-23T03:04:28;16.25;;;6.97;;
72584;SDS011;73873;40.084;32.908;2024-02-23T03:06:55;16.63;;;6.78;;
72584;SDS011;73873;40.084;32.908;2024-02-23T03:09:22;17.23;;;6.45;;
72584;SDS011;73873;40.084;32.908;2024-02-23T03:11:49;19.02;;;7.57;;
72584;SDS011;73873;40.084;32.908;2024-02-23T03:14:16;21.27;;;7.78;;
72584;SDS011;73873;40.084;32.908;2024-02-23T03:16:43;21.23;;;7.68;;
72584;SDS011;73873;40.084;32.908;2024-02-23T03:19:09;23.48;;;9.00;;
72584;SDS011;73873;40.084;32.908;2024-02-23T03:21:36;24.17;;;9.60;;
72584;SDS011;73873;40.084;32.908;2024-02-23T03:24:05;25.15;;;9.35;;
72584;SDS011;73873;40.084;32.908;2024-02-23T03:26:33;20.15;;;8.20;;
72584;SDS011;73873;40.084;32.908;2024-02-23T03:29:00;24.13;;;9.35;;
72584;SDS011;73873;40.084;32.908;2024-02-23T03:31:27;23.60;;;8.85;;
72584;SDS011;73873;40.084;32.908;2024-02-23T03:33:54;19.90;;;8.00;;
72584;SDS011;73873;40.084;32.908;2024-02-23T03:36:21;25.52;;;9.00;;
72584;SDS011;73873;40.084;32.908;2024-02-23T03:38:48;20.58;;;8.82;;
72584;SDS011;73873;40.084;32.908;2024-02-23T03:41:15;20.77;;;8.55;;
72584;SDS011;73873;40.084;32.908;2024-02-23T03:43:42;19.52;;;8.88;;
72584;SDS011;73873;40.084;32.908;2024-02-23T03:46:09;21.55;;;8.32;;
72584;SDS011;73873;40.084;32.908;2024-02-23T03:48:36;17.88;;;7.53;;
72584;SDS011;73873;40.084;32.908;2024-02-23T03:51:03;20.58;;;8.10;;
72584;SDS011;73873;40.084;32.908;2024-02-23T03:53:31;20.38;;;7.63;;
72584;SDS011;73873;40.084;32.908;2024-02-23T03:55:58;15.48;;;5.93;;
72584;SDS011;73873;40.084;32.908;2024-02-23T03:58:25;14.63;;;6.22;;
72584;SDS011;73873;40.084;32.908;2024-02-23T04:00:52;14.07;;;5.63;;
72584;SDS011;73873;40.084;32.908;2024-02-23T04:03:19;15.13;;;6.30;;
72584;SDS011;73873;40.084;32.908;2024-02-23T04:05:46;21.53;;;7.80;;
72584;SDS011;73873;40.084;32.908;2024-02-23T04:08:13;21.77;;;9.07;;
72584;SDS011;73873;40.084;32.908;2024-02-23T04:10:40;23.92;;;9.50;;
72584;SDS011;73873;40.084;32.908;2024-02-23T04:13:07;26.50;;;9.27;;
72584;SDS011;73873;40.084;32.908;2024-02-23T04:15:34;19.88;;;7.78;;
72584;SDS011;73873;40.084;32.908;2024-02-23T04:18:05;17.77;;;6.63;;
72584;SDS011;73873;40.084;32.908;2024-02-23T04:20:32;17.38;;;6.82;;
72584;SDS011;73873;40.084;32.908;2024-02-23T04:23:00;21.50;;;7.63;;
72584;SDS011;73873;40.084;32.908;2024-02-23T04:25:27;20.42;;;7.65;;
72584;SDS011;73873;40.084;32.908;2024-02-23T04:27:54;19.75;;;7.97;;
72584;SDS011;73873;40.084;32.908;2024-02-23T04:30:21;24.30;;;8.97;;
72584;SDS011;73873;40.084;32.908;2024-02-23T04:32:48;24.63;;;9.10;;
72584;SDS011;73873;40.084;32.908;2024-02-23T04:35:15;22.35;;;8.77;;
72584;SDS011;73873;40.084;32.908;2024-02-23T04:37:45;29.88;;;10.75;;
72584;SDS011;73873;40.084;32.908;2024-02-23T04:40:12;29.83;;;10.70;;
72584;SDS011;73873;40.084;32.908;2024-02-23T04:42:39;28.70;;;11.43;;
72584;SDS011;73873;40.084;32.908;2024-02-23T04:45:06;26.05;;;10.80;;
72584;SDS011;73873;40.084;32.908;2024-02-23T04:47:34;26.83;;;11.57;;
72584;SDS011;73873;40.084;32.908;2024-02-23T04:50:01;25.17;;;9.93;;
72584;SDS011;73873;40.084;32.908;2024-02-23T04:52:28;24.90;;;10.80;;
72584;SDS011;73873;40.084;32.908;2024-02-23T04:54:55;23.90;;;10.43;;
72584;SDS011;73873;40.084;32.908;2024-02-23T04:57:22;27.10;;;10.95;;
72584;SDS011;73873;40.084;32.908;2024-02-23T04:59:48;23.45;;;10.25;;
72584;SDS011;73873;40.084;32.908;2024-02-23T05:02:15;27.80;;;10.23;;
72584;SDS011;73873;40.084;32.908;2024-02-23T05:04:42;24.92;;;9.95;;
72584;SDS011;73873;40.084;32.908;2024-02-23T05:07:09;25.73;;;10.83;;
72584;SDS011;73873;40.084;32.908;2024-02-23T05:09:37;30.23;;;10.63;;
72584;SDS011;73873;40.084;32.908;2024-02-23T05:12:03;26.38;;;9.98;;
72584;SDS011;73873;40.084;32.908;2024-02-23T05:14:31;27.05;;;10.15;;
72584;SDS011;73873;40.084;32.908;2024-02-23T05:16:58;22.48;;;10.05;;
72584;SDS011;73873;40.084;32.908;2024-02-23T05:19:25;25.43;;;11.90;;
72584;SDS011;73873;40.084;32.908;2024-02-23T05:21:52;23.88;;;9.85;;
72584;SDS011;73873;40.084;32.908;2024-02-23T05:24:19;29.42;;;14.38;;
72584;SDS011;73873;40.084;32.908;2024-02-23T05:26:46;46.03;;;30.10;;
72584;SDS011;73873;40.084;32.908;2024-02-23T05:29:13;52.97;;;33.35;;
72584;SDS011;73873;40.084;32.908;2024-02-23T05:31:43;39.80;;;21.90;;
72584;SDS011;73873;40.084;32.908;2024-02-23T05:34:12;28.88;;;15.25;;
72584;SDS011;73873;40.084;32.908;2024-02-23T05:36:39;27.05;;;10.50;;
72584;SDS011;73873;40.084;32.908;2024-02-23T05:39:06;25.02;;;11.02;;
72584;SDS011;73873;40.084;32.908;2024-02-23T05:41:33;70.78;;;45.75;;
72584;SDS011;73873;40.084;32.908;2024-02-23T05:44:00;35.50;;;20.03;;
72584;SDS011;73873;40.084;32.908;2024-02-23T05:46:27;29.50;;;14.18;;
72584;SDS011;73873;40.084;32.908;2024-02-23T05:48:54;25.73;;;11.35;;
72584;SDS011;73873;40.084;32.908;2024-02-23T05:51:22;27.73;;;10.93;;
72584;SDS011;73873;40.084;32.908;2024-02-23T05:53:49;29.60;;;11.57;;
72584;SDS011;73873;40.084;32.908;2024-02-23T05:56:16;31.50;;;12.80;;
72584;SDS011;73873;40.084;32.908;2024-02-23T05:58:43;28.08;;;12.50;;
72584;SDS011;73873;40.084;32.908;2024-02-23T06:01:10;29.92;;;11.57;;
72584;SDS011;73873;40.084;32.908;2024-02-23T06:03:37;28.35;;;12.00;;
72584;SDS011;73873;40.084;32.908;2024-02-23T06:06:07;28.20;;;11.60;;
72584;SDS011;73873;40.084;32.908;2024-02-23T06:08:35;29.30;;;11.80;;
72584;SDS011;73873;40.084;32.908;2024-02-23T06:11:03;29.35;;;11.90;;
72584;SDS011;73873;40.084;32.908;2024-02-23T06:13:30;27.75;;;11.98;;
72584;SDS011;73873;40.084;32.908;2024-02-23T06:15:58;27.40;;;11.73;;
72584;SDS011;73873;40.084;32.908;2024-02-23T06:18:26;30.65;;;11.57;;
72584;SDS011;73873;40.084;32.908;2024-02-23T06:20:53;26.60;;;11.13;;
72584;SDS011;73873;40.084;32.908;2024-02-23T06:23:20;25.38;;;11.00;;
72584;SDS011;73873;40.084;32.908;2024-02-23T06:25:47;27.27;;;11.13;;
72584;SDS011;73873;40.084;32.908;2024-02-23T06:28:14;29.42;;;11.40;;
72584;SDS011;73873;40.084;32.908;2024-02-23T06:30:41;27.42;;;11.60;;
72584;SDS011;73873;40.084;32.908;2024-02-23T06:33:08;29.77;;;11.50;;
72584;SDS011;73873;40.084;32.908;2024-02-23T06:35:35;26.92;;;11.27;;
72584;SDS011;73873;40.084;32.908;2024-02-23T06:38:02;30.75;;;11.48;;
72584;SDS011;73873;40.084;32.908;2024-02-23T06:40:29;30.15;;;11.73;;
72584;SDS011;73873;40.084;32.908;2024-02-23T06:43:11;31.15;;;11.55;;
72584;SDS011;73873;40.084;32.908;2024-02-23T06:45:38;34.47;;;11.70;;
72584;SDS011;73873;40.084;32.908;2024-02-23T06:48:05;34.13;;;12.52;;
72584;SDS011;73873;40.084;32.908;2024-02-23T06:50:33;28.77;;;11.98;;
72584;SDS011;73873;40.084;32.908;2024-02-23T06:53:00;28.42;;;10.95;;
72584;SDS011;73873;40.084;32.908;2024-02-23T06:55:27;33.20;;;11.18;;
72584;SDS011;73873;40.084;32.908;2024-02-23T06:57:54;30.23;;;12.10;;
72584;SDS011;73873;40.084;32.908;2024-02-23T07:00:21;36.90;;;11.40;;
72584;SDS011;73873;40.084;32.908;2024-02-23T07:02:48;34.47;;;12.00;;
72584;SDS011;73873;40.084;32.908;2024-02-23T07:05:15;27.10;;;11.85;;
72584;SDS011;73873;40.084;32.908;2024-02-23T07:07:42;26.92;;;10.35;;
72584;SDS011;73873;40.084;32.908;2024-02-23T07:10:09;27.60;;;11.27;;
72584;SDS011;73873;40.084;32.908;2024-02-23T07:12:36;25.33;;;9.98;;
72584;SDS011;73873;40.084;32.908;2024-02-23T07:15:03;30.65;;;10.43;;
72584;SDS011;73873;40.084;32.908;2024-02-23T07:17:31;24.65;;;11.40;;
72584;SDS011;73873;40.084;32.908;2024-02-23T07:19:58;24.27;;;10.35;;
72584;SDS011;73873;40.084;32.908;2024-02-23T07:22:25;23.77;;;9.90;;
72584;SDS011;73873;40.084;32.908;2024-02-23T07:24:52;23.23;;;9.85;;
72584;SDS011;73873;40.084;32.908;2024-02-23T07:27:19;22.67;;;8.80;;
72584;SDS011;73873;40.084;32.908;2024-02-23T07:29:46;18.98;;;8.25;;
72584;SDS011;73873;40.084;32.908;2024-02-23T07:32:13;21.48;;;8.00;;
72584;SDS011;73873;40.084;32.908;2024-02-23T07:34:40;21.37;;;7.90;;
72584;SDS011;73873;40.084;32.908;2024-02-23T07:37:07;23.42;;;7.75;;
72584;SDS011;73873;40.084;32.908;2024-02-23T07:39:34;18.23;;;8.15;;
72584;SDS011;73873;40.084;32.908;2024-02-23T07:42:01;18.92;;;8.27;;
72584;SDS011;73873;40.084;32.908;2024-02-23T07:44:28;19.38;;;7.90;;
72584;SDS011;73873;40.084;32.908;2024-02-23T07:46:56;18.77;;;8.27;;
72584;SDS011;73873;40.084;32.908;2024-02-23T07:49:23;15.93;;;7.55;;
72584;SDS011;73873;40.084;32.908;2024-02-23T07:51:50;22.15;;;8.48;;
72584;SDS011;73873;40.084;32.908;2024-02-23T07:54:17;18.38;;;8.25;;
72584;SDS011;73873;40.084;32.908;2024-02-23T07:56:43;21.45;;;8.73;;
72584;SDS011;73873;40.084;32.908;2024-02-23T07:59:10;20.53;;;9.53;;
72584;SDS011;73873;40.084;32.908;2024-02-23T08:01:37;23.13;;;10.40;;
72584;SDS011;73873;40.084;32.908;2024-02-23T08:04:04;21.90;;;9.77;;
72584;SDS011;73873;40.084;32.908;2024-02-23T08:06:32;22.77;;;10.25;;
72584;SDS011;73873;40.084;32.908;2024-02-23T08:08:59;18.30;;;7.57;;
72584;SDS011;73873;40.084;32.908;2024-02-23T08:11:26;19.87;;;7.80;;
72584;SDS011;73873;40.084;32.908;2024-02-23T08:13:53;20.83;;;7.93;;
72584;SDS011;73873;40.084;32.908;2024-02-23T08:16:20;18.50;;;7.00;;
72584;SDS011;73873;40.084;32.908;2024-02-23T08:18:47;18.60;;;7.45;;
72584;SDS011;73873;40.084;32.908;2024-02-23T08:21:14;17.95;;;7.55;;
72584;SDS011;73873;40.084;32.908;2024-02-23T08:23:41;23.67;;;8.07;;
72584;SDS011;73873;40.084;32.908;2024-02-23T08:26:08;16.92;;;8.02;;
72584;SDS011;73873;40.084;32.908;2024-02-23T08:28:35;17.90;;;7.90;;
72584;SDS011;73873;40.084;32.908;2024-02-23T08:31:02;15.63;;;7.90;;
72584;SDS011;73873;40.084;32.908;2024-02-23T08:33:29;19.17;;;8.27;;
72584;SDS011;73873;40.084;32.908;2024-02-23T08:35:56;19.43;;;8.50;;
72584;SDS011;73873;40.084;32.908;2024-02-23T08:38:23;19.33;;;9.35;;
72584;SDS011;73873;40.084;32.908;2024-02-23T08:40:50;21.75;;;9.48;;
72584;SDS011;73873;40.084;32.908;2024-02-23T08:43:17;20.35;;;8.55;;
72584;SDS011;73873;40.084;32.908;2024-02-23T08:45:44;23.48;;;9.75;;
72584;SDS011;73873;40.084;32.908;2024-02-23T08:48:11;21.70;;;10.23;;
72584;SDS011;73873;40.084;32.908;2024-02-23T08:50:38;23.45;;;10.45;;
72584;SDS011;73873;40.084;32.908;2024-02-23T08:53:05;20.17;;;10.55;;
72584;SDS011;73873;40.084;32.908;2024-02-23T08:55:32;23.92;;;9.88;;
72584;SDS011;73873;40.084;32.908;2024-02-23T08:57:59;24.38;;;11.20;;
72584;SDS011;73873;40.084;32.908;2024-02-23T09:00:26;27.07;;;11.00;;
72584;SDS011;73873;40.084;32.908;2024-02-23T09:02:53;24.30;;;10.57;;
72584;SDS011;73873;40.084;32.908;2024-02-23T09:05:20;23.83;;;11.25;;
72584;SDS011;73873;40.084;32.908;2024-02-23T09:07:47;30.63;;;11.25;;
72584;SDS011;73873;40.084;32.908;2024-02-23T09:10:14;22.15;;;11.13;;
72584;SDS011;73873;40.084;32.908;2024-02-23T09:12:41;22.43;;;10.93;;
72584;SDS011;73873;40.084;32.908;2024-02-23T09:15:08;27.80;;;11.70;;
72584;SDS011;73873;40.084;32.908;2024-02-23T09:17:35;20.05;;;9.77;;
72584;SDS011;73873;40.084;32.908;2024-02-23T09:20:02;19.77;;;9.70;;
72584;SDS011;73873;40.084;32.908;2024-02-23T09:22:29;19.67;;;9.38;;
72584;SDS011;73873;40.084;32.908;2024-02-23T09:24:56;17.83;;;8.70;;
72584;SDS011;73873;40.084;32.908;2024-02-23T09:27:23;18.40;;;8.75;;
72584;SDS011;73873;40.084;32.908;2024-02-23T09:29:51;22.52;;;9.88;;
72584;SDS011;73873;40.084;32.908;2024-02-23T09:32:18;19.27;;;9.07;;
72584;SDS011;73873;40.084;32.908;2024-02-23T09:34:45;16.73;;;7.90;;
72584;SDS011;73873;40.084;32.908;2024-02-23T09:37:12;18.33;;;8.97;;
72584;SDS011;73873;40.084;32.908;2024-02-23T09:39:39;17.08;;;8.80;;
72584;SDS011;73873;40.084;32.908;2024-02-23T09:42:09;14.48;;;8.25;;
72584;SDS011;73873;40.084;32.908;2024-02-23T09:44:37;18.02;;;7.90;;
72584;SDS011;73873;40.084;32.908;2024-02-23T09:47:04;19.33;;;9.05;;
72584;SDS011;73873;40.084;32.908;2024-02-23T09:49:32;19.30;;;9.33;;
72584;SDS011;73873;40.084;32.908;2024-02-23T09:52:00;21.10;;;9.90;;
72584;SDS011;73873;40.084;32.908;2024-02-23T09:54:27;18.20;;;9.10;;
72584;SDS011;73873;40.084;32.908;2024-02-23T09:56:54;17.83;;;8.27;;
72584;SDS011;73873;40.084;32.908;2024-02-23T09:59:21;13.48;;;7.18;;
72584;SDS011;73873;40.084;32.908;2024-02-23T10:01:48;18.07;;;8.80;;
72584;SDS011;73873;40.084;32.908;2024-02-23T10:04:15;17.10;;;8.02;;
72584;SDS011;73873;40.084;32.908;2024-02-23T10:06:42;18.25;;;8.70;;
72584;SDS011;73873;40.084;32.908;2024-02-23T10:09:09;17.70;;;8.77;;
72584;SDS011;73873;40.084;32.908;2024-02-23T10:11:36;17.85;;;8.82;;
72584;SDS011;73873;40.084;32.908;2024-02-23T10:14:03;22.67;;;9.70;;
72584;SDS011;73873;40.084;32.908;2024-02-23T10:16:31;17.92;;;9.15;;
72584;SDS011;73873;40.084;32.908;2024-02-23T10:18:59;19.83;;;9.98;;
72584;SDS011;73873;40.084;32.908;2024-02-23T10:21:26;23.77;;;11.30;;
72584;SDS011;73873;40.084;32.908;2024-02-23T10:23:55;26.05;;;10.82;;
72584;SDS011;73873;40.084;32.908;2024-02-23T10:26:22;18.73;;;9.17;;
72584;SDS011;73873;40.084;32.908;2024-02-23T10:28:50;20.15;;;10.57;;
72584;SDS011;73873;40.084;32.908;2024-02-23T10:31:17;19.42;;;10.07;;
72584;SDS011;73873;40.084;32.908;2024-02-23T10:33:44;20.50;;;10.25;;
72584;SDS011;73873;40.084;32.908;2024-02-23T10:36:11;22.70;;;10.77;;
72584;SDS011;73873;40.084;32.908;2024-02-23T10:38:42;21.00;;;9.90;;
72584;SDS011;73873;40.084;32.908;2024-02-23T10:41:12;19.05;;;9.85;;
72584;SDS011;73873;40.084;32.908;2024-02-23T10:43:46;23.20;;;10.52;;
72584;SDS011;73873;40.084;32.908;2024-02-23T10:46:15;19.60;;;9.55;;
72584;SDS011;73873;40.084;32.908;2024-02-23T10:48:43;20.58;;;10.48;;
72584;SDS011;73873;40.084;32.908;2024-02-23T10:51:13;21.63;;;10.80;;
72584;SDS011;73873;40.084;32.908;2024-02-23T10:53:46;22.17;;;10.85;;
72584;SDS011;73873;40.084;32.908;2024-02-23T10:56:15;20.73;;;10.10;;
72584;SDS011;73873;40.084;32.908;2024-02-23T10:58:42;16.63;;;8.07;;
72584;SDS011;73873;40.084;32.908;2024-02-23T11:01:09;16.95;;;8.35;;
72584;SDS011;73873;40.084;32.908;2024-02-23T11:03:38;17.97;;;8.40;;
72584;SDS011;73873;40.084;32.908;2024-02-23T11:06:07;15.52;;;8.27;;
72584;SDS011;73873;40.084;32.908;2024-02-23T11:08:35;28.77;;;8.80;;
72584;SDS011;73873;40.084;32.908;2024-02-23T11:11:09;16.13;;;8.25;;
72584;SDS011;73873;40.084;32.908;2024-02-23T11:13:40;16.48;;;9.13;;
72584;SDS011;73873;40.084;32.908;2024-02-23T11:16:07;16.63;;;8.73;;
72584;SDS011;73873;40.084;32.908;2024-02-23T11:18:35;19.40;;;9.10;;
72584;SDS011;73873;40.084;32.908;2024-02-23T11:21:04;18.67;;;9.80;;
72584;SDS011;73873;40.084;32.908;2024-02-23T11:23:44;19.65;;;9.25;;
72584;SDS011;73873;40.084;32.908;2024-02-23T11:26:14;18.45;;;9.85;;
72584;SDS011;73873;40.084;32.908;2024-02-23T11:28:42;19.53;;;9.57;;
72584;SDS011;73873;40.084;32.908;2024-02-23T11:31:19;18.98;;;9.57;;
72584;SDS011;73873;40.084;32.908;2024-02-23T11:33:50;19.90;;;9.57;;
72584;SDS011;73873;40.084;32.908;2024-02-23T11:36:28;19.85;;;9.45;;
72584;SDS011;73873;40.084;32.908;2024-02-23T11:38:59;22.40;;;10.10;;
72584;SDS011;73873;40.084;32.908;2024-02-23T11:41:28;18.33;;;9.17;;
72584;SDS011;73873;40.084;32.908;2024-02-23T11:43:56;20.10;;;10.35;;
72584;SDS011;73873;40.084;32.908;2024-02-23T11:46:23;22.40;;;10.70;;
72584;SDS011;73873;40.084;32.908;2024-02-23T11:48:51;21.38;;;10.57;;
72584;SDS011;73873;40.084;32.908;2024-02-23T11:51:19;20.15;;;9.98;;
72584;SDS011;73873;40.084;32.908;2024-02-23T11:53:46;19.47;;;10.17;;
72584;SDS011;73873;40.084;32.908;2024-02-23T11:56:14;18.35;;;9.43;;
72584;SDS011;73873;40.084;32.908;2024-02-23T11:58:41;20.08;;;10.63;;
72584;SDS011;73873;40.084;32.908;2024-02-23T12:01:08;22.73;;;10.77;;
72584;SDS011;73873;40.084;32.908;2024-02-23T12:03:35;21.73;;;10.75;;
72584;SDS011;73873;40.084;32.908;2024-02-23T12:06:03;22.10;;;10.30;;
72584;SDS011;73873;40.084;32.908;2024-02-23T12:08:30;23.38;;;10.23;;
72584;SDS011;73873;40.084;32.908;2024-02-23T12:10:58;22.42;;;9.57;;
72584;SDS011;73873;40.084;32.908;2024-02-23T12:13:25;20.45;;;10.43;;
72584;SDS011;73873;40.084;32.908;2024-02-23T12:15:53;23.38;;;9.88;;
72584;SDS011;73873;40.084;32.908;2024-02-23T12:18:23;17.63;;;9.43;;
72584;SDS011;73873;40.084;32.908;2024-02-23T12:20:50;19.45;;;9.60;;
72584;SDS011;73873;40.084;32.908;2024-02-23T12:23:18;18.67;;;9.48;;
72584;SDS011;73873;40.084;32.908;2024-02-23T12:25:57;18.17;;;9.00;;
72584;SDS011;73873;40.084;32.908;2024-02-23T12:28:24;17.30;;;8.73;;
72584;SDS011;73873;40.084;32.908;2024-02-23T12:31:00;18.87;;;10.07;;
72584;SDS011;73873;40.084;32.908;2024-02-23T12:33:28;17.98;;;9.45;;
72584;SDS011;73873;40.084;32.908;2024-02-23T12:35:59;20.98;;;9.90;;
72584;SDS011;73873;40.084;32.908;2024-02-23T12:38:27;16.52;;;8.40;;
72584;SDS011;73873;40.084;32.908;2024-02-23T12:40:54;19.52;;;9.50;;
72584;SDS011;73873;40.084;32.908;2024-02-23T12:43:22;16.43;;;8.53;;
72584;SDS011;73873;40.084;32.908;2024-02-23T12:45:49;18.27;;;8.30;;
72584;SDS011;73873;40.084;32.908;2024-02-23T12:48:23;16.80;;;8.48;;
72584;SDS011;73873;40.084;32.908;2024-02-23T12:50:51;46.83;;;10.32;;
72584;SDS011;73873;40.084;32.908;2024-02-23T12:53:31;17.85;;;7.82;;
72584;SDS011;73873;40.084;32.908;2024-02-23T12:56:05;14.50;;;6.97;;
72584;SDS011;73873;40.084;32.908;2024-02-23T12:58:37;14.93;;;7.50;;
72584;SDS011;73873;40.084;32.908;2024-02-23T13:01:05;16.90;;;8.02;;
72584;SDS011;73873;40.084;32.908;2024-02-23T13:03:34;17.10;;;7.93;;
72584;SDS011;73873;40.084;32.908;2024-02-23T13:06:02;15.38;;;7.68;;
72584;SDS011;73873;40.084;32.908;2024-02-23T13:08:29;15.90;;;7.57;;
72584;SDS011;73873;40.084;32.908;2024-02-23T13:10:56;17.63;;;8.75;;
72584;SDS011;73873;40.084;32.908;2024-02-23T13:13:24;15.43;;;7.80;;
72584;SDS011;73873;40.084;32.908;2024-02-23T13:15:52;14.90;;;7.93;;
72584;SDS011;73873;40.084;32.908;2024-02-23T13:18:20;19.83;;;8.18;;
72584;SDS011;73873;40.084;32.908;2024-02-23T13:20:47;15.53;;;7.40;;
72584;SDS011;73873;40.084;32.908;2024-02-23T13:23:15;16.30;;;7.82;;
72584;SDS011;73873;40.084;32.908;2024-02-23T13:25:42;14.25;;;6.78;;
72584;SDS011;73873;40.084;32.908;2024-02-23T13:28:10;12.98;;;6.70;;
72584;SDS011;73873;40.084;32.908;2024-02-23T13:30:37;11.50;;;6.15;;
72584;SDS011;73873;40.084;32.908;2024-02-23T13:33:05;15.53;;;7.63;;
72584;SDS011;73873;40.084;32.908;2024-02-23T13:35:32;14.90;;;7.75;;
72584;SDS011;73873;40.084;32.908;2024-02-23T13:37:59;14.75;;;7.38;;
72584;SDS011;73873;40.084;32.908;2024-02-23T13:40:26;13.32;;;6.95;;
72584;SDS011;73873;40.084;32.908;2024-02-23T13:42:53;11.98;;;6.53;;
72584;SDS011;73873;40.084;32.908;2024-02-23T13:45:20;14.43;;;6.77;;
72584;SDS011;73873;40.084;32.908;2024-02-23T13:48:00;14.10;;;6.57;;
72584;SDS011;73873;40.084;32.908;2024-02-23T13:50:29;14.68;;;6.85;;
72584;SDS011;73873;40.084;32.908;2024-02-23T13:52:56;14.00;;;6.93;;
72584;SDS011;73873;40.084;32.908;2024-02-23T13:55:24;14.48;;;6.60;;
72584;SDS011;73873;40.084;32.908;2024-02-23T13:57:51;12.60;;;6.03;;
72584;SDS011;73873;40.084;32.908;2024-02-23T14:00:18;14.20;;;6.80;;
72584;SDS011;73873;40.084;32.908;2024-02-23T14:02:47;12.43;;;6.07;;
72584;SDS011;73873;40.084;32.908;2024-02-23T14:05:14;12.10;;;6.32;;
72584;SDS011;73873;40.084;32.908;2024-02-23T14:07:42;13.43;;;6.47;;
72584;SDS011;73873;40.084;32.908;2024-02-23T14:10:09;12.93;;;5.80;;
72584;SDS011;73873;40.084;32.908;2024-02-23T14:12:37;11.82;;;5.75;;
72584;SDS011;73873;40.084;32.908;2024-02-23T14:15:04;11.57;;;5.70;;
72584;SDS011;73873;40.084;32.908;2024-02-23T14:17:32;12.27;;;6.28;;
72584;SDS011;73873;40.084;32.908;2024-02-23T14:19:59;14.13;;;6.32;;
72584;SDS011;73873;40.084;32.908;2024-02-23T14:22:27;11.07;;;6.07;;